createdAt,value
2018-04-15T00:00:31.679Z,39.90
2018-04-15T00:01:31.660Z,38.50
2018-04-15T00:02:31.586Z,38.80
2018-04-15T00:03:31.539Z,40.30
2018-04-15T00:04:31.485Z,38.80
2018-04-15T00:05:31.443Z,39.50
2018-04-15T00:06:31.421Z,41.00
2018-04-15T00:07:31.346Z,39.10
2018-04-15T00:08:31.303Z,40.70
2018-04-15T00:09:31.248Z,41.40
2018-04-15T00:10:31.212Z,40.00
2018-04-15T00:11:31.184Z,40.50
2018-04-15T00:12:31.110Z,40.40
2018-04-15T00:13:31.069Z,40.20
2018-04-15T00:14:31.015Z,40.80
2018-04-15T00:15:30.968Z,41.30
2018-04-15T00:16:30.944Z,40.20
2018-04-15T00:17:30.869Z,40.60
2018-04-15T00:18:30.824Z,41.20
2018-04-15T00:19:30.780Z,40.50
2018-04-15T00:20:30.730Z,40.60
2018-04-15T00:21:30.710Z,41.50
2018-04-15T00:22:30.635Z,41.10
2018-04-15T00:23:30.604Z,39.90
2018-04-15T00:24:30.535Z,40.00
2018-04-15T00:25:30.497Z,40.30
2018-04-15T00:26:30.469Z,40.90
2018-04-15T00:27:30.398Z,40.80
2018-04-15T00:28:30.357Z,40.90
2018-04-15T00:29:30.303Z,39.30
2018-04-15T00:30:30.257Z,40.20
2018-04-15T00:31:30.235Z,40.70
2018-04-15T00:32:30.159Z,40.40
2018-04-15T00:33:30.112Z,40.40
2018-04-15T00:34:30.068Z,40.60
2018-04-15T00:35:30.021Z,41.00
2018-04-15T00:36:29.997Z,40.50
2018-04-15T00:37:29.925Z,41.30
2018-04-15T00:38:29.876Z,40.70
2018-04-15T00:39:29.830Z,42.80
2018-04-15T00:40:29.783Z,41.20
2018-04-15T00:41:29.759Z,41.40
2018-04-15T00:42:29.686Z,40.60
2018-04-15T00:43:29.642Z,40.20
2018-04-15T00:44:29.594Z,41.20
2018-04-15T00:45:29.542Z,41.90
2018-04-15T00:46:29.519Z,40.40
2018-04-15T00:47:29.448Z,41.60
2018-04-15T00:48:29.408Z,41.20
2018-04-15T00:49:29.351Z,40.30
2018-04-15T00:50:29.309Z,40.80
2018-04-15T00:51:29.282Z,40.40
2018-04-15T00:52:29.215Z,41.40
2018-04-15T00:53:29.167Z,40.70
2018-04-15T00:54:29.123Z,40.50
2018-04-15T00:55:29.069Z,41.20
2018-04-15T00:56:29.043Z,40.70
2018-04-15T00:57:28.973Z,40.50
2018-04-15T00:58:28.928Z,41.20
2018-04-15T00:59:28.883Z,42.10
2018-04-15T01:00:28.832Z,41.20
2018-04-15T01:01:28.813Z,41.70
2018-04-15T01:02:28.742Z,40.60
2018-04-15T01:03:28.688Z,41.00
2018-04-15T01:04:28.643Z,42.10
2018-04-15T01:05:28.595Z,41.20
2018-04-15T01:06:28.572Z,41.50
2018-04-15T01:07:28.507Z,40.90
2018-04-15T01:08:28.451Z,42.00
2018-04-15T01:09:28.407Z,40.90
2018-04-15T01:10:28.358Z,41.50
2018-04-15T01:11:28.743Z,42.10
2018-04-15T01:12:28.260Z,41.70
2018-04-15T01:13:28.216Z,41.60
2018-04-15T01:14:28.171Z,41.70
2018-04-15T01:15:28.120Z,42.20
2018-04-15T01:16:28.100Z,42.10
2018-04-15T01:17:28.027Z,42.20
2018-04-15T01:18:27.977Z,41.10
2018-04-15T01:19:27.933Z,42.80
2018-04-15T01:20:27.881Z,41.80
2018-04-15T01:21:27.875Z,42.30
2018-04-15T01:22:27.793Z,42.40
2018-04-15T01:23:27.861Z,41.90
2018-04-15T01:24:27.694Z,41.40
2018-04-15T01:25:27.646Z,42.90
2018-04-15T01:26:27.597Z,43.10
2018-04-15T01:27:27.579Z,41.90
2018-04-15T01:28:27.502Z,41.80
2018-04-15T01:29:27.457Z,42.50
2018-04-15T01:30:27.409Z,42.20
2018-04-15T01:31:27.365Z,41.90
2018-04-15T01:32:27.342Z,41.90
2018-04-15T01:33:27.269Z,43.40
2018-04-15T01:34:27.219Z,42.30
2018-04-15T01:35:27.170Z,42.90
2018-04-15T01:36:27.127Z,43.20
2018-04-15T01:37:27.104Z,42.70
2018-04-15T01:38:27.029Z,42.10
2018-04-15T01:39:26.980Z,43.10
2018-04-15T01:40:26.935Z,42.00
2018-04-15T01:41:26.893Z,43.00
2018-04-15T01:42:26.865Z,41.30
2018-04-15T01:43:26.789Z,42.80
2018-04-15T01:44:26.744Z,43.30
2018-04-15T01:45:26.702Z,43.30
2018-04-15T01:46:26.651Z,43.00
2018-04-15T01:47:26.630Z,43.00
2018-04-15T01:48:26.553Z,43.30
2018-04-15T01:49:26.508Z,43.20
2018-04-15T01:50:26.461Z,42.10
2018-04-15T01:52:58.073Z,42.10
2018-04-15T01:53:58.012Z,42.80
2018-04-15T01:54:57.956Z,43.50
2018-04-15T01:55:57.908Z,42.60
2018-04-15T01:56:57.893Z,41.50
2018-04-15T01:57:57.812Z,42.20
2018-04-15T01:58:57.768Z,42.20
2018-04-15T01:59:57.718Z,43.30
2018-04-15T02:00:57.672Z,43.10
2018-04-15T02:01:57.652Z,43.20
2018-04-15T02:02:57.580Z,42.70
2018-04-15T02:03:57.530Z,44.30
2018-04-15T02:04:57.482Z,42.70
2018-04-15T02:05:57.434Z,42.20
2018-04-15T02:06:57.413Z,43.20
2018-04-15T02:07:57.340Z,43.50
2018-04-15T02:08:57.293Z,43.10
2018-04-15T02:09:57.247Z,42.30
2018-04-15T02:10:57.198Z,42.10
2018-04-15T02:11:57.179Z,43.00
2018-04-15T02:12:57.112Z,42.80
2018-04-15T02:13:57.064Z,43.10
2018-04-15T02:14:57.012Z,43.70
2018-04-15T02:15:56.965Z,43.00
2018-04-15T02:16:56.957Z,43.10
2018-04-15T02:17:56.873Z,43.00
2018-04-15T02:18:56.823Z,42.80
2018-04-15T02:19:56.776Z,42.60
2018-04-15T02:20:56.729Z,42.70
2018-04-15T02:21:56.687Z,42.70
2018-04-15T02:22:56.659Z,43.80
2018-04-15T02:23:56.589Z,42.30
2018-04-15T02:24:56.542Z,42.10
2018-04-15T02:25:56.493Z,43.10
2018-04-15T02:26:56.445Z,42.80
2018-04-15T02:27:56.431Z,44.70
2018-04-15T02:28:56.355Z,44.80
2018-04-15T02:29:56.308Z,43.10
2018-04-15T02:30:56.259Z,43.20
2018-04-15T02:31:56.217Z,43.00
2018-04-15T02:32:56.190Z,43.90
2018-04-15T02:33:56.119Z,44.00
2018-04-15T02:34:56.074Z,43.30
2018-04-15T02:35:56.021Z,43.80
2018-04-15T02:36:55.973Z,44.50
2018-04-15T02:37:55.954Z,44.40
2018-04-15T02:38:55.886Z,44.10
2018-04-15T02:39:55.840Z,44.40
2018-04-15T02:40:55.788Z,44.20
2018-04-15T02:41:55.739Z,43.00
2018-04-15T02:42:55.720Z,42.90
2018-04-15T02:43:55.645Z,43.00
2018-04-15T02:44:55.598Z,42.60
2018-04-15T02:45:55.550Z,44.10
2018-04-15T02:46:55.506Z,43.50
2018-04-15T02:47:55.486Z,44.10
2018-04-15T02:48:55.411Z,43.70
2018-04-15T02:49:55.363Z,43.70
2018-04-15T02:50:55.322Z,43.50
2018-04-15T02:51:55.276Z,44.80
2018-04-15T02:52:55.248Z,43.10
2018-04-15T02:53:55.175Z,42.80
2018-04-15T02:54:55.128Z,43.00
2018-04-15T02:55:55.084Z,43.90
2018-04-15T02:56:55.034Z,43.80
2018-04-15T02:57:55.011Z,44.00
2018-04-15T02:58:54.941Z,44.40
2018-04-15T02:59:54.898Z,44.40
2018-04-15T03:00:54.894Z,43.90
2018-04-15T03:01:54.799Z,44.40
2018-04-15T03:02:54.779Z,44.20
2018-04-15T03:03:54.707Z,43.70
2018-04-15T03:04:54.662Z,42.20
2018-04-15T03:05:54.618Z,41.90
2018-04-15T03:06:54.565Z,42.30
2018-04-15T03:07:54.546Z,41.80
2018-04-15T03:08:54.468Z,41.60
2018-04-15T03:09:54.424Z,41.90
2018-04-15T03:10:54.380Z,43.80
2018-04-15T03:11:54.326Z,42.50
2018-04-15T03:12:54.307Z,42.30
2018-04-15T03:13:54.235Z,43.10
2018-04-15T03:14:54.187Z,43.10
2018-04-15T03:15:54.142Z,43.20
2018-04-15T03:16:54.096Z,42.90
2018-04-15T03:17:54.071Z,43.50
2018-04-15T03:18:53.996Z,44.10
2018-04-15T03:19:53.950Z,44.40
2018-04-15T03:20:53.908Z,43.90
2018-04-15T03:21:53.861Z,44.80
2018-04-15T03:22:53.835Z,44.50
2018-04-15T03:23:53.762Z,45.10
2018-04-15T03:24:53.717Z,45.00
2018-04-15T03:26:00.777Z,45.80
2018-04-15T03:26:53.620Z,44.70
2018-04-15T03:27:53.598Z,46.00
2018-04-15T03:28:53.522Z,46.50
2018-04-15T03:29:53.476Z,45.50
2018-04-15T03:30:53.429Z,47.00
2018-04-15T03:31:53.382Z,47.10
2018-04-15T03:32:53.358Z,46.80
2018-04-15T03:33:53.286Z,48.20
2018-04-15T03:34:53.237Z,47.20
2018-04-15T03:35:53.193Z,48.00
2018-04-15T03:36:53.145Z,48.10
2018-04-15T03:37:53.119Z,48.40
2018-04-15T03:38:53.051Z,47.10
2018-04-15T03:39:53.000Z,47.60
2018-04-15T03:40:52.956Z,48.50
2018-04-15T03:41:52.906Z,49.90
2018-04-15T03:42:52.882Z,48.90
2018-04-15T03:43:52.826Z,48.40
2018-04-15T03:44:52.767Z,48.50
2018-04-15T03:45:52.720Z,49.30
2018-04-15T03:46:52.668Z,49.70
2018-04-15T03:47:52.693Z,47.00
2018-04-15T03:48:52.580Z,49.60
2018-04-15T03:49:52.529Z,50.50
2018-04-15T03:50:52.486Z,50.90
2018-04-15T03:51:52.433Z,49.30
2018-04-15T03:52:52.410Z,50.30
2018-04-15T03:53:52.344Z,51.20
2018-04-15T03:54:52.292Z,51.90
2018-04-15T03:55:52.243Z,51.10
2018-04-15T03:56:52.193Z,50.40
2018-04-15T03:57:52.174Z,51.10
2018-04-15T03:58:52.101Z,50.20
2018-04-15T03:59:52.055Z,50.00
2018-04-15T04:00:52.004Z,50.90
2018-04-15T04:01:51.956Z,50.60
2018-04-15T04:02:51.953Z,49.90
2018-04-15T04:03:51.871Z,51.30
2018-04-15T04:04:51.816Z,51.70
2018-04-15T04:05:51.770Z,51.80
2018-04-15T04:06:51.721Z,52.60
2018-04-15T04:07:51.679Z,52.60
2018-04-15T04:08:51.652Z,53.30
2018-04-15T04:09:51.581Z,53.20
2018-04-15T04:10:51.530Z,54.60
2018-04-15T04:11:51.487Z,54.50
2018-04-15T04:12:51.446Z,54.90
2018-04-15T04:13:51.417Z,54.60
2018-04-15T04:14:51.340Z,54.30
2018-04-15T04:15:51.295Z,54.30
2018-04-15T04:16:51.248Z,54.40
2018-04-15T04:17:51.201Z,52.60
2018-04-15T04:18:51.180Z,54.60
2018-04-15T04:19:51.108Z,55.60
2018-04-15T04:20:51.058Z,54.90
2018-04-15T04:21:51.010Z,54.50
2018-04-15T04:22:50.970Z,55.60
2018-04-15T04:23:50.948Z,56.40
2018-04-15T04:24:50.868Z,56.80
2018-04-15T04:25:50.821Z,55.50
2018-04-15T04:26:50.774Z,58.20
2018-04-15T04:27:50.739Z,58.00
2018-04-15T04:28:50.703Z,56.40
2018-04-15T04:29:50.632Z,57.50
2018-04-15T04:30:50.582Z,56.50
2018-04-15T04:31:50.540Z,56.60
2018-04-15T04:32:50.488Z,57.40
2018-04-15T04:33:50.470Z,59.90
2018-04-15T04:34:50.395Z,58.10
2018-04-15T04:35:50.354Z,58.40
2018-04-15T04:36:57.430Z,57.40
2018-04-15T04:37:50.251Z,59.10
2018-04-15T04:38:50.228Z,57.40
2018-04-15T04:39:50.154Z,59.00
2018-04-15T04:40:50.107Z,59.10
2018-04-15T04:41:50.060Z,59.50
2018-04-15T04:42:50.011Z,60.00
2018-04-15T04:43:49.989Z,60.80
2018-04-15T04:44:49.914Z,59.50
2018-04-15T04:45:49.867Z,59.70
2018-04-15T04:46:49.819Z,61.50
2018-04-15T04:47:49.771Z,62.00
2018-04-15T04:48:49.755Z,60.40
2018-04-15T04:49:49.677Z,58.50
2018-04-15T04:50:49.645Z,60.70
2018-04-15T04:51:49.581Z,61.90
2018-04-15T04:52:49.534Z,61.00
2018-04-15T04:53:49.513Z,64.20
2018-04-15T04:54:49.440Z,62.90
2018-04-15T04:55:49.390Z,66.80
2018-04-15T04:56:49.344Z,67.90
2018-04-15T04:57:49.297Z,65.20
2018-04-15T04:58:49.272Z,65.20
2018-04-15T04:59:49.200Z,67.30
2018-04-15T05:00:49.154Z,67.00
2018-04-15T05:01:49.105Z,67.00
2018-04-15T05:02:49.055Z,67.20
2018-04-15T05:03:49.035Z,68.40
2018-04-15T05:04:48.965Z,70.00
2018-04-15T05:05:48.921Z,69.30
2018-04-15T05:06:48.869Z,73.70
2018-04-15T05:07:48.822Z,70.90
2018-04-15T05:08:48.804Z,70.00
2018-04-15T05:09:48.722Z,67.60
2018-04-15T05:10:48.679Z,72.50
2018-04-15T05:11:48.632Z,75.40
2018-04-15T05:12:48.582Z,72.50
2018-04-15T05:13:48.533Z,75.40
2018-04-15T05:14:48.509Z,74.30
2018-04-15T05:15:48.438Z,75.60
2018-04-15T05:16:48.392Z,76.80
2018-04-15T05:17:48.343Z,76.80
2018-04-15T05:18:48.298Z,73.60
2018-04-15T05:19:48.270Z,76.00
2018-04-15T05:20:48.196Z,73.60
2018-04-15T05:21:48.150Z,76.60
2018-04-15T05:22:48.103Z,76.00
2018-04-15T05:23:48.057Z,77.00
2018-04-15T05:24:48.031Z,74.70
2018-04-15T05:27:19.584Z,75.30
2018-04-15T05:28:19.534Z,72.70
2018-04-15T05:29:19.510Z,77.90
2018-04-15T05:30:19.442Z,79.50
2018-04-15T05:31:19.389Z,80.20
2018-04-15T05:32:19.352Z,79.40
2018-04-15T05:33:19.293Z,80.10
2018-04-15T05:34:19.272Z,76.00
2018-04-15T05:35:19.200Z,76.70
2018-04-15T05:36:19.149Z,78.70
2018-04-15T05:37:19.102Z,78.80
2018-04-15T05:38:19.057Z,79.00
2018-04-15T05:39:19.033Z,76.40
2018-04-15T05:40:18.970Z,77.00
2018-04-15T05:41:18.911Z,77.40
2018-04-15T05:42:18.863Z,78.00
2018-04-15T05:43:18.816Z,77.80
2018-04-15T05:44:18.792Z,77.80
2018-04-15T05:45:18.724Z,78.90
2018-04-15T05:46:18.672Z,78.80
2018-04-15T05:47:18.627Z,78.10
2018-04-15T05:48:18.577Z,75.50
2018-04-15T05:49:18.557Z,75.80
2018-04-15T05:50:18.482Z,75.00
2018-04-15T05:51:18.442Z,76.50
2018-04-15T05:52:18.439Z,77.00
2018-04-15T05:53:18.340Z,75.20
2018-04-15T05:54:18.318Z,74.80
2018-04-15T05:55:18.246Z,74.70
2018-04-15T05:56:18.198Z,75.20
2018-04-15T05:57:18.148Z,75.40
2018-04-15T05:58:18.105Z,75.20
2018-04-15T05:59:18.080Z,75.60
2018-04-15T06:00:18.012Z,78.20
2018-04-15T06:01:17.960Z,76.90
2018-04-15T06:02:17.915Z,78.10
2018-04-15T06:03:17.862Z,83.60
2018-04-15T06:04:17.857Z,79.20
2018-04-15T06:05:17.813Z,75.90
2018-04-15T06:06:17.722Z,77.80
2018-04-15T06:07:17.675Z,79.70
2018-04-15T06:08:17.627Z,82.60
2018-04-15T06:09:17.584Z,80.90
2018-04-15T06:10:17.554Z,78.10
2018-04-15T06:11:17.485Z,77.90
2018-04-15T06:12:17.440Z,79.20
2018-04-15T06:13:17.389Z,77.10
2018-04-15T06:14:17.345Z,79.90
2018-04-15T06:15:17.323Z,81.10
2018-04-15T06:16:17.246Z,80.60
2018-04-15T06:17:17.200Z,80.20
2018-04-15T06:18:17.148Z,78.70
2018-04-15T06:19:17.105Z,81.40
2018-04-15T06:20:17.084Z,81.30
2018-04-15T06:21:17.008Z,82.80
2018-04-15T06:22:16.963Z,86.00
2018-04-15T06:23:16.912Z,83.40
2018-04-15T06:24:16.869Z,83.30
2018-04-15T06:25:16.840Z,79.30
2018-04-15T06:26:16.772Z,79.00
2018-04-15T06:27:16.726Z,83.60
2018-04-15T06:28:16.679Z,77.80
2018-04-15T06:29:16.632Z,81.90
2018-04-15T06:30:16.604Z,80.00
2018-04-15T06:31:16.532Z,78.40
2018-04-15T06:32:16.483Z,77.90
2018-04-15T06:33:16.435Z,78.70
2018-04-15T06:34:16.387Z,78.70
2018-04-15T06:35:16.370Z,77.80
2018-04-15T06:36:16.292Z,79.20
2018-04-15T06:37:16.244Z,78.70
2018-04-15T06:38:16.205Z,80.20
2018-04-15T06:39:16.151Z,78.60
2018-04-15T06:40:16.131Z,80.20
2018-04-15T06:41:16.056Z,78.90
2018-04-15T06:42:16.008Z,79.90
2018-04-15T06:43:15.961Z,80.20
2018-04-15T06:44:15.914Z,81.20
2018-04-15T06:45:15.932Z,78.60
2018-04-15T06:46:15.817Z,79.70
2018-04-15T06:47:15.772Z,78.10
2018-04-15T06:48:15.744Z,75.00
2018-04-15T06:49:15.716Z,79.00
2018-04-15T06:50:15.654Z,74.70
2018-04-15T06:51:15.581Z,77.40
2018-04-15T06:52:15.536Z,77.00
2018-04-15T06:53:15.488Z,74.90
2018-04-15T06:54:15.440Z,76.00
2018-04-15T06:55:15.417Z,77.70
2018-04-15T06:56:15.345Z,78.10
2018-04-15T06:57:15.296Z,80.90
2018-04-15T06:58:15.249Z,75.90
2018-04-15T06:59:15.204Z,74.60
2018-04-15T07:00:15.180Z,74.90
2018-04-15T07:01:15.105Z,77.20
2018-04-15T07:02:15.059Z,73.90
2018-04-15T07:03:15.008Z,74.30
2018-04-15T07:04:14.965Z,72.80
2018-04-15T07:05:14.940Z,70.60
2018-04-15T07:06:14.869Z,76.10
2018-04-15T07:07:14.823Z,73.80
2018-04-15T07:08:14.780Z,74.10
2018-04-15T07:09:14.726Z,72.60
2018-04-15T07:10:14.710Z,75.90
2018-04-15T07:11:14.636Z,76.20
2018-04-15T07:12:14.585Z,73.90
2018-04-15T07:13:14.537Z,75.10
2018-04-15T07:14:14.491Z,74.80
2018-04-15T07:15:14.471Z,73.50
2018-04-15T07:16:14.397Z,76.60
2018-04-15T07:17:14.351Z,73.20
2018-04-15T07:18:14.303Z,75.30
2018-04-15T07:19:14.259Z,77.60
2018-04-15T07:20:14.230Z,71.60
2018-04-15T07:21:14.162Z,77.90
2018-04-15T07:22:14.119Z,73.40
2018-04-15T07:23:14.065Z,68.70
2018-04-15T07:24:14.020Z,72.30
2018-04-15T07:25:13.996Z,74.10
2018-04-15T07:26:13.924Z,76.90
2018-04-15T07:27:13.877Z,74.30
2018-04-15T07:28:13.829Z,72.20
2018-04-15T07:29:13.786Z,72.00
2018-04-15T07:30:13.761Z,68.10
2018-04-15T07:31:13.690Z,69.70
2018-04-15T07:32:13.640Z,65.50
2018-04-15T07:33:13.598Z,72.70
2018-04-15T07:34:13.545Z,68.00
2018-04-15T07:35:13.525Z,71.10
2018-04-15T07:36:13.454Z,72.90
2018-04-15T07:37:13.408Z,68.70
2018-04-15T07:38:13.358Z,66.10
2018-04-15T07:39:13.311Z,62.80
2018-04-15T07:40:13.288Z,69.10
2018-04-15T07:41:13.222Z,70.80
2018-04-15T07:42:13.177Z,70.50
2018-04-15T07:43:13.138Z,68.40
2018-04-15T07:44:13.080Z,69.50
2018-04-15T07:45:13.055Z,64.10
2018-04-15T07:46:13.003Z,61.10
2018-04-15T07:47:12.941Z,65.50
2018-04-15T07:48:12.891Z,62.90
2018-04-15T07:49:12.849Z,65.60
2018-04-15T07:50:12.824Z,66.30
2018-04-15T07:51:12.753Z,63.10
2018-04-15T07:52:12.704Z,64.00
2018-04-15T07:53:12.655Z,63.10
2018-04-15T07:54:12.609Z,62.20
2018-04-15T07:55:12.596Z,60.60
2018-04-15T07:56:12.524Z,61.80
2018-04-15T07:57:12.469Z,60.90
2018-04-15T07:58:12.423Z,61.20
2018-04-15T07:59:12.381Z,60.90
2018-04-15T08:00:12.334Z,62.90
2018-04-15T08:01:12.307Z,59.60
2018-04-15T08:02:12.238Z,58.60
2018-04-15T08:03:12.193Z,63.00
2018-04-15T08:04:12.143Z,59.50
2018-04-15T08:05:12.095Z,60.30
2018-04-15T08:06:12.077Z,62.20
2018-04-15T08:07:12.009Z,61.60
2018-04-15T08:08:11.959Z,58.80
2018-04-15T08:09:11.914Z,62.10
2018-04-15T08:10:11.865Z,60.10
2018-04-15T08:11:11.845Z,60.10
2018-04-15T08:12:11.775Z,58.70
2018-04-15T08:13:11.724Z,57.90
2018-04-15T08:14:11.678Z,58.80
2018-04-15T08:15:11.637Z,58.40
2018-04-15T08:16:11.616Z,58.20
2018-04-15T08:17:11.549Z,58.10
2018-04-15T08:18:11.492Z,57.10
2018-04-15T08:19:11.447Z,56.70
2018-04-15T08:20:11.402Z,60.60
2018-04-15T08:21:11.382Z,58.50
2018-04-15T08:22:11.305Z,57.90
2018-04-15T08:23:11.259Z,56.10
2018-04-15T08:24:11.212Z,58.10
2018-04-15T08:25:11.178Z,57.20
2018-04-15T08:26:11.151Z,58.40
2018-04-15T08:27:11.070Z,54.40
2018-04-15T08:28:11.028Z,55.50
2018-04-15T08:29:10.982Z,56.90
2018-04-15T08:30:10.931Z,53.80
2018-04-15T08:31:10.925Z,54.90
2018-04-15T08:32:10.844Z,52.40
2018-04-15T08:33:10.792Z,51.40
2018-04-15T08:34:10.748Z,49.90
2018-04-15T08:35:10.703Z,48.50
2018-04-15T08:36:10.684Z,48.90
2018-04-15T08:37:10.608Z,50.80
2018-04-15T08:38:10.568Z,48.40
2018-04-15T08:39:10.516Z,47.90
2018-04-15T08:40:10.467Z,47.80
2018-04-15T08:41:10.455Z,46.30
2018-04-15T08:42:10.376Z,46.90
2018-04-15T08:43:10.331Z,48.60
2018-04-15T08:44:10.281Z,44.60
2018-04-15T08:45:10.232Z,43.10
2018-04-15T08:46:10.213Z,43.80
2018-04-15T08:47:10.146Z,43.20
2018-04-15T08:48:10.097Z,44.30
2018-04-15T08:49:10.052Z,42.00
2018-04-15T08:50:10.006Z,42.30
2018-04-15T08:51:09.981Z,42.00
2018-04-15T08:52:09.916Z,42.30
2018-04-15T08:53:09.864Z,40.20
2018-04-15T08:54:09.820Z,39.50
2018-04-15T08:55:09.772Z,39.60
2018-04-15T08:56:09.748Z,40.10
2018-04-15T08:57:09.681Z,38.40
2018-04-15T08:58:09.639Z,38.00
2018-04-15T08:59:09.590Z,39.10
2018-04-15T09:00:09.542Z,36.60
2018-04-15T09:01:09.519Z,35.90
2018-04-15T09:02:09.450Z,36.00
2018-04-15T09:03:09.406Z,36.00
2018-04-15T09:04:09.355Z,34.70
2018-04-15T09:05:09.313Z,34.30
2018-04-15T09:06:09.289Z,34.40
2018-04-15T09:07:09.218Z,31.40
2018-04-15T09:08:09.171Z,31.50
2018-04-15T09:09:09.146Z,30.40
2018-04-15T09:10:09.080Z,30.30
2018-04-15T09:11:09.062Z,30.00
2018-04-15T09:12:08.989Z,29.80
2018-04-15T09:13:08.948Z,28.40
2018-04-15T09:14:08.905Z,29.20
2018-04-15T09:15:08.850Z,27.10
2018-04-15T09:16:08.840Z,27.40
2018-04-15T09:17:08.760Z,27.60
2018-04-15T09:18:08.734Z,27.50
2018-04-15T09:19:08.667Z,27.00
2018-04-15T09:20:08.622Z,26.60
2018-04-15T09:21:08.598Z,25.60
2018-04-15T09:22:08.531Z,25.70
2018-04-15T09:23:08.485Z,27.10
2018-04-15T09:24:08.443Z,26.40
2018-04-15T09:25:08.397Z,26.40
2018-04-15T09:26:08.370Z,26.90
2018-04-15T09:27:08.301Z,26.60
2018-04-15T09:28:08.254Z,26.90
2018-04-15T09:29:08.207Z,25.70
2018-04-15T09:30:08.201Z,24.70
2018-04-15T09:31:08.146Z,22.10
2018-04-15T09:32:08.079Z,22.00
2018-04-15T09:33:08.026Z,21.10
2018-04-15T09:34:07.985Z,20.50
2018-04-15T09:35:07.935Z,20.20
2018-04-15T09:36:07.941Z,19.60
2018-04-15T09:37:07.846Z,18.60
2018-04-15T09:38:07.803Z,17.90
2018-04-15T09:39:07.756Z,19.80
2018-04-15T09:40:07.722Z,20.00
2018-04-15T09:41:07.681Z,19.30
2018-04-15T09:42:07.641Z,18.70
2018-04-15T09:43:07.576Z,17.60
2018-04-15T09:44:07.528Z,16.60
2018-04-15T09:45:07.484Z,16.90
2018-04-15T09:46:07.435Z,16.00
2018-04-15T09:47:07.421Z,17.40
2018-04-15T09:48:07.348Z,15.90
2018-04-15T09:49:07.299Z,16.90
2018-04-15T09:50:07.261Z,14.50
2018-04-15T09:51:07.212Z,15.70
2018-04-15T09:52:07.199Z,15.90
2018-04-15T09:53:07.122Z,16.20
2018-04-15T09:54:07.081Z,17.30
2018-04-15T09:55:07.034Z,14.60
2018-04-15T09:56:06.990Z,12.90
2018-04-15T09:57:06.971Z,13.20
2018-04-15T09:58:06.901Z,13.60
2018-04-15T09:59:06.914Z,14.40
2018-04-15T10:00:06.941Z,13.80
2018-04-15T10:01:06.809Z,13.50
2018-04-15T10:02:06.749Z,13.60
2018-04-15T10:03:06.679Z,12.10
2018-04-15T10:04:06.631Z,11.70
2018-04-15T10:05:06.592Z,11.90
2018-04-15T10:06:06.547Z,13.10
2018-04-15T10:07:06.522Z,13.20
2018-04-15T10:08:06.453Z,13.50
2018-04-15T10:09:06.412Z,11.60
2018-04-15T10:10:06.365Z,10.90
2018-04-15T10:11:06.322Z,10.60
2018-04-15T10:12:06.304Z,11.40
2018-04-15T10:13:06.230Z,12.70
2018-04-15T10:14:06.187Z,13.00
2018-04-15T10:15:06.156Z,13.00
2018-04-15T10:16:06.099Z,9.90
2018-04-15T10:17:06.080Z,9.40
2018-04-15T10:18:06.013Z,8.00
2018-04-15T10:19:05.964Z,9.60
2018-04-15T10:20:05.926Z,9.00
2018-04-15T10:21:05.884Z,8.00
2018-04-15T10:22:05.859Z,8.70
2018-04-15T10:23:05.787Z,8.70
2018-04-15T10:24:05.792Z,9.10
2018-04-15T10:25:05.701Z,9.10
2018-04-15T10:26:05.656Z,9.10
2018-04-15T10:27:05.641Z,8.20
2018-04-15T10:28:05.568Z,8.30
2018-04-15T10:29:05.522Z,9.00
2018-04-15T10:30:05.480Z,8.30
2018-04-15T10:31:05.433Z,9.30
2018-04-15T10:32:05.385Z,8.90
2018-04-15T10:33:05.363Z,8.90
2018-04-15T10:34:05.300Z,9.00
2018-04-15T10:35:05.255Z,8.70
2018-04-15T10:36:05.211Z,9.30
2018-04-15T10:37:05.160Z,9.40
2018-04-15T10:38:05.142Z,9.20
2018-04-15T10:39:05.078Z,9.90
2018-04-15T10:40:05.030Z,9.50
2018-04-15T10:41:05.054Z,10.10
2018-04-15T10:42:04.941Z,9.90
2018-04-15T10:43:04.918Z,10.60
2018-04-15T10:44:04.850Z,9.80
2018-04-15T10:45:04.805Z,10.10
2018-04-15T10:46:04.805Z,9.40
2018-04-15T10:47:04.718Z,9.20
2018-04-15T10:48:04.694Z,9.20
2018-04-15T10:49:04.631Z,8.80
2018-04-15T10:50:04.581Z,8.40
2018-04-15T10:51:04.535Z,8.90
2018-04-15T10:52:04.495Z,7.90
2018-04-15T10:53:04.469Z,8.20
2018-04-15T10:54:04.401Z,7.60
2018-04-15T10:55:04.353Z,8.30
2018-04-15T10:56:04.307Z,8.80
2018-04-15T10:57:04.266Z,8.70
2018-04-15T10:58:04.242Z,8.70
2018-04-15T10:59:04.173Z,9.00
2018-04-15T11:00:04.130Z,8.80
2018-04-15T11:01:04.084Z,8.90
2018-04-15T11:02:04.037Z,9.10
2018-04-15T11:03:04.019Z,9.20
2018-04-15T11:04:03.948Z,8.30
2018-04-15T11:05:03.905Z,8.10
2018-04-15T11:06:03.859Z,7.70
2018-04-15T11:07:03.816Z,8.20
2018-04-15T11:08:03.793Z,9.10
2018-04-15T11:09:03.723Z,8.70
2018-04-15T11:10:03.677Z,8.80
2018-04-15T11:11:03.632Z,8.80
2018-04-15T11:12:03.588Z,9.60
2018-04-15T11:13:03.565Z,8.40
2018-04-15T11:14:03.533Z,9.00
2018-04-15T11:15:03.453Z,8.60
2018-04-15T11:16:03.410Z,7.40
2018-04-15T11:17:03.365Z,7.80
2018-04-15T11:18:03.347Z,8.20
2018-04-15T11:19:03.276Z,8.10
2018-04-15T11:20:03.234Z,8.20
2018-04-15T11:21:03.182Z,8.00
2018-04-15T11:22:03.143Z,7.80
2018-04-15T11:23:03.142Z,7.60
2018-04-15T11:24:03.052Z,7.50
2018-04-15T11:25:03.005Z,7.00
2018-04-15T11:26:02.960Z,7.30
2018-04-15T11:27:02.916Z,7.10
2018-04-15T11:28:02.895Z,6.70
2018-04-15T11:29:02.824Z,6.90
2018-04-15T11:30:02.780Z,6.80
2018-04-15T11:31:02.738Z,6.40
2018-04-15T11:32:02.689Z,7.30
2018-04-15T11:33:02.689Z,6.70
2018-04-15T11:34:02.600Z,6.20
2018-04-15T11:35:02.563Z,6.30
2018-04-15T11:36:02.514Z,6.50
2018-04-15T11:37:02.465Z,6.40
2018-04-15T11:38:02.482Z,6.50
2018-04-15T11:39:02.375Z,6.30
2018-04-15T11:40:02.332Z,6.20
2018-04-15T11:41:02.285Z,6.70
2018-04-15T11:42:02.263Z,6.70
2018-04-15T11:43:02.223Z,6.00
2018-04-15T11:44:02.155Z,5.90
2018-04-15T11:45:02.106Z,5.60
2018-04-15T11:46:02.065Z,5.90
2018-04-15T11:47:02.023Z,6.70
2018-04-15T11:48:01.998Z,7.00
2018-04-15T11:49:01.935Z,7.80
2018-04-15T11:50:01.910Z,7.00
2018-04-15T11:51:01.847Z,6.90
2018-04-15T11:52:01.799Z,7.10
2018-04-15T11:53:01.780Z,6.80
2018-04-15T11:54:01.719Z,6.40
2018-04-15T11:55:01.678Z,5.40
2018-04-15T11:56:01.627Z,5.60
2018-04-15T11:57:01.578Z,4.80
2018-04-15T11:58:01.565Z,5.10
2018-04-15T11:59:01.493Z,5.50
2018-04-15T12:00:01.445Z,5.60
2018-04-15T12:01:01.400Z,5.90
2018-04-15T12:02:01.355Z,6.10
2018-04-15T12:03:01.342Z,6.30
2018-04-15T12:04:01.269Z,6.30
2018-04-15T12:05:01.225Z,6.30
2018-04-15T12:06:01.180Z,6.20
2018-04-15T12:07:01.142Z,6.20
2018-04-15T12:08:01.118Z,6.00
2018-04-15T12:09:01.053Z,6.30
2018-04-15T12:10:01.004Z,6.10
2018-04-15T12:11:01.004Z,6.00
2018-04-15T12:12:00.917Z,6.30
2018-04-15T12:13:00.900Z,6.20
2018-04-15T12:14:00.832Z,6.10
2018-04-15T12:15:00.787Z,6.00
2018-04-15T12:16:00.744Z,6.20
2018-04-15T12:17:00.700Z,6.20
2018-04-15T12:18:00.696Z,6.30
2018-04-15T12:19:00.610Z,6.50
2018-04-15T12:20:00.567Z,6.50
2018-04-15T12:21:00.521Z,5.90
2018-04-15T12:22:00.482Z,6.10
2018-04-15T12:23:00.459Z,6.00
2018-04-15T12:24:00.401Z,6.30
2018-04-15T12:25:00.350Z,5.90
2018-04-15T12:26:00.304Z,5.80
2018-04-15T12:27:00.264Z,5.80
2018-04-15T12:28:00.242Z,5.70
2018-04-15T12:29:00.173Z,5.90
2018-04-15T12:30:00.133Z,5.90
2018-04-15T12:31:00.086Z,5.80
2018-04-15T12:32:00.044Z,6.10
2018-04-15T12:33:00.024Z,5.80
2018-04-15T12:33:59.961Z,5.70
2018-04-15T12:34:59.912Z,5.50
2018-04-15T12:35:59.869Z,5.50
2018-04-15T12:36:59.823Z,5.70
2018-04-15T12:37:59.805Z,6.00
2018-04-15T12:38:59.737Z,5.60
2018-04-15T12:39:59.699Z,5.80
2018-04-15T12:40:59.659Z,5.40
2018-04-15T12:41:59.626Z,5.10
2018-04-15T12:42:59.582Z,5.00
2018-04-15T12:43:59.514Z,5.60
2018-04-15T12:44:59.472Z,5.30
2018-04-15T12:45:59.427Z,5.20
2018-04-15T12:46:59.383Z,5.10
2018-04-15T12:47:59.371Z,4.90
2018-04-15T12:48:59.294Z,4.90
2018-04-15T12:49:59.251Z,4.90
2018-04-15T12:50:59.208Z,3.50
2018-04-15T12:51:59.162Z,3.80
2018-04-15T12:52:59.140Z,4.20
2018-04-15T12:53:59.079Z,4.20
2018-04-15T12:54:59.032Z,4.50
2018-04-15T12:55:58.987Z,4.50
2018-04-15T12:56:58.942Z,4.60
2018-04-15T12:57:58.922Z,5.10
2018-04-15T12:58:58.855Z,5.00
2018-04-15T12:59:58.809Z,5.60